Time;durP1;ratioP1;P1;durP2;ratioP2;P2;SDS_P1;SDS_P2;PMS_P1;PMS_P2;Temp;Humidity;BMP_temperature;BMP_pressure;BME280_temperature;BME280_humidity;BME280_pressure;Samples;Min_cycle;Max_cycle;Signal;HPM_P1;HPM_P2
2022/12/11 00:01:43;;;;;;;0.50;0.50;;;-1.00;99.90;;;;;;5079216;28;20094;-77
2022/12/11 00:04:09;;;;;;;3.97;2.47;;;-1.00;99.90;;;;;;5078543;28;20509;-77
2022/12/11 00:06:35;;;;;;;0.63;0.50;;;-1.00;99.90;;;;;;5078465;28;20054;-76
2022/12/11 00:09:00;;;;;;;0.10;0.10;;;-1.00;99.90;;;;;;5078570;28;20044;-76
2022/12/11 00:11:26;;;;;;;0.85;0.85;;;-1.00;99.90;;;;;;5067557;28;20045;-76
2022/12/11 00:13:52;;;;;;;0.50;0.50;;;-1.00;99.90;;;;;;5058591;28;20071;-76
2022/12/11 00:16:18;;;;;;;0.30;0.30;;;-1.00;99.90;;;;;;5058194;28;20055;-74
2022/12/11 00:18:43;;;;;;;0.40;0.40;;;-1.00;99.90;;;;;;5058462;28;20056;-74
2022/12/11 00:21:13;;;;;;;0.97;0.83;;;-0.80;99.90;;;;;;5058466;28;20049;-75
2022/12/11 00:23:39;;;;;;;1.30;1.23;;;-0.90;99.90;;;;;;5058419;28;20047;-76
2022/12/11 00:26:11;;;;;;;2.40;2.20;;;-0.90;99.90;;;;;;5058377;28;20674;-76
2022/12/11 00:28:36;;;;;;;3.23;3.00;;;-0.90;99.90;;;;;;5058683;28;20567;-76
2022/12/11 00:31:04;;;;;;;1.70;1.57;;;-0.90;99.90;;;;;;5058316;28;20119;-75
2022/12/11 00:33:30;;;;;;;0.47;0.47;;;-0.90;99.90;;;;;;5058153;28;20052;-76
2022/12/11 00:35:56;;;;;;;0.30;0.30;;;-0.90;99.90;;;;;;5057713;28;20048;-76
2022/12/11 00:38:22;;;;;;;3.80;2.40;;;-0.90;99.90;;;;;;5058069;28;20513;-77
2022/12/11 00:40:48;;;;;;;0.40;0.40;;;-0.80;99.90;;;;;;5058407;28;20036;-77
2022/12/11 00:43:14;;;;;;;0.80;0.80;;;-0.90;99.90;;;;;;5058226;28;20048;-76
2022/12/11 00:45:45;;;;;;;2.50;0.67;;;-0.80;99.90;;;;;;5051930;28;20441;-76
2022/12/11 00:48:12;;;;;;;1.50;1.40;;;-0.80;99.90;;;;;;5057716;28;20044;-77
2022/12/11 00:50:39;;;;;;;0.93;0.93;;;-0.70;99.90;;;;;;5058019;28;20041;-77
2022/12/11 00:53:05;;;;;;;2.03;1.83;;;-0.70;99.90;;;;;;5057788;28;20575;-77
2022/12/11 00:55:35;;;;;;;7.47;1.97;;;-0.70;99.90;;;;;;5057144;28;20506;-76
2022/12/11 00:58:01;;;;;;;1.00;0.53;;;-0.70;99.90;;;;;;5057061;28;20050;-76
2022/12/11 01:00:26;;;;;;;1.90;1.80;;;-0.70;99.90;;;;;;5057722;28;20175;-75
2022/12/11 01:02:52;;;;;;;2.27;2.07;;;-0.60;99.90;;;;;;5057581;28;20056;-75
2022/12/11 01:05:18;;;;;;;0.83;0.83;;;-0.60;99.90;;;;;;5056707;28;20041;-75
2022/12/11 01:07:43;;;;;;;2.07;1.70;;;-0.70;99.90;;;;;;5057516;28;20569;-74
2022/12/11 01:10:24;;;;;;;0.37;0.37;;;-0.60;99.90;;;;;;5045659;28;20045;-75
2022/12/11 01:12:54;;;;;;;0.63;0.63;;;-0.60;99.90;;;;;;5044259;28;20399;-75
2022/12/11 01:15:22;;;;;;;0.47;0.47;;;-0.70;99.90;;;;;;5042728;28;20060;-75
2022/12/11 01:17:48;;;;;;;3.00;2.63;;;-0.60;99.90;;;;;;5044051;28;20147;-75
2022/12/11 01:20:14;;;;;;;1.17;1.10;;;-0.60;99.90;;;;;;5043865;28;20506;-75
2022/12/11 01:22:40;;;;;;;1.40;1.03;;;-0.60;99.90;;;;;;5044310;28;20048;-75
2022/12/11 01:25:06;;;;;;;0.83;0.83;;;-0.50;99.90;;;;;;5043993;28;20506;-75
2022/12/11 01:27:32;;;;;;;2.63;2.13;;;-0.50;99.90;;;;;;5044189;28;20067;-75
2022/12/11 01:29:58;;;;;;;16.83;1.93;;;-0.50;99.90;;;;;;5043750;28;20076;-74
2022/12/11 01:32:24;;;;;;;1.77;1.67;;;-0.50;99.90;;;;;;5044160;28;20044;-76
2022/12/11 01:34:49;;;;;;;0.10;0.10;;;-0.50;99.90;;;;;;5043325;28;20033;-75
2022/12/11 01:37:15;;;;;;;0.30;0.30;;;-0.50;99.90;;;;;;5043472;28;20045;-75
2022/12/11 01:39:41;;;;;;;3.30;2.00;;;-0.50;99.90;;;;;;5043695;28;20068;-74
2022/12/11 01:42:14;;;;;;;2.07;1.90;;;-0.50;99.90;;;;;;5043740;28;20056;-76
2022/12/11 01:44:40;;;;;;;0.30;0.30;;;-0.50;99.90;;;;;;5043160;28;20041;-76
2022/12/11 01:47:06;;;;;;;3.20;1.27;;;-0.50;99.90;;;;;;5043672;28;20052;-75
2022/12/11 01:49:31;;;;;;;0.63;0.63;;;-0.50;99.90;;;;;;5043401;28;20237;-76
2022/12/11 01:52:04;;;;;;;3.40;2.27;;;-0.40;99.90;;;;;;5043105;28;20076;-76
2022/12/11 01:54:31;;;;;;;1.92;1.80;;;-0.40;99.90;;;;;;5043657;28;20117;-76
2022/12/11 01:57:01;;;;;;;1.90;1.80;;;-0.50;99.90;;;;;;5023286;28;20521;-76
2022/12/11 01:59:30;;;;;;;1.33;1.25;;;-0.50;99.90;;;;;;5023612;28;20067;-76
2022/12/11 02:02:04;;;;;;;0.00;0.00;;;-0.40;99.90;;;;;;5035206;28;20084;-76
2022/12/11 02:04:32;;;;;;;0.50;0.50;;;-0.40;99.90;;;;;;5043464;28;20053;-75
2022/12/11 02:06:57;;;;;;;4.53;3.83;;;-0.40;99.90;;;;;;5042819;28;20414;-76
2022/12/11 02:09:26;;;;;;;0.23;0.23;;;-0.40;99.90;;;;;;5043586;28;20045;-76
2022/12/11 02:12:06;;;;;;;2.35;2.15;;;-0.40;99.90;;;;;;5042729;28;20037;-76
2022/12/11 02:14:45;;;;;;;2.53;2.07;;;-0.40;99.90;;;;;;5043370;28;20083;-76
2022/12/11 02:17:29;;;;;;;0.20;0.20;;;-0.40;99.90;;;;;;5042726;28;20594;-76
2022/12/11 02:20:14;;;;;;;9.80;1.43;;;-0.40;99.90;;;;;;5043310;28;20049;-76
2022/12/11 02:23:11;;;;;;;0.37;0.37;;;-0.40;99.90;;;;;;5042240;28;20429;-76
2022/12/11 02:25:42;;;;;;;0.68;0.68;;;-0.40;99.90;;;;;;5042680;28;20072;-76
2022/12/11 02:28:26;;;;;;;0.23;0.23;;;-0.40;99.90;;;;;;5043109;28;20060;-76
2022/12/11 02:31:01;;;;;;;0.65;0.65;;;-0.40;99.90;;;;;;5042992;28;20060;-75
2022/12/11 02:33:42;;;;;;;0.00;0.00;;;-0.30;99.90;;;;;;5043073;28;20057;-76
2022/12/11 02:36:08;;;;;;;0.43;0.43;;;-0.30;99.90;;;;;;5042472;28;20339;-76
2022/12/11 02:38:38;;;;;;;0.43;0.43;;;-0.30;99.90;;;;;;5042798;28;20422;-76
2022/12/11 02:41:06;;;;;;;0.50;0.50;;;-0.20;99.90;;;;;;5042319;28;20119;-76
2022/12/11 02:43:35;;;;;;;0.70;0.70;;;-0.40;99.90;;;;;;5042439;28;20102;-76
2022/12/11 02:46:04;;;;;;;0.37;0.37;;;-0.30;99.90;;;;;;5042103;28;20096;-76
2022/12/11 02:48:32;;;;;;;1.40;1.30;;;-0.30;99.90;;;;;;5042269;28;20059;-75
2022/12/11 02:51:00;;;;;;;0.28;0.28;;;-0.20;99.90;;;;;;5041955;28;20155;-76
2022/12/11 02:53:28;;;;;;;1.35;1.25;;;-0.30;99.90;;;;;;5042202;28;20037;-75
2022/12/11 02:56:02;;;;;;;3.10;2.40;;;-0.20;99.90;;;;;;5042210;28;20450;-76
2022/12/11 02:58:33;;;;;;;2.55;1.33;;;-0.20;99.90;;;;;;5042831;28;20057;-75
2022/12/11 03:00:59;;;;;;;8.57;1.97;;;-0.20;99.90;;;;;;5042662;28;20422;-76
2022/12/11 03:03:24;;;;;;;7.03;1.87;;;-0.20;99.90;;;;;;5042457;28;20049;-76
2022/12/11 03:05:50;;;;;;;3.50;1.42;;;-0.20;99.90;;;;;;5041943;28;20041;-76
2022/12/11 03:08:17;;;;;;;0.47;0.47;;;-0.20;99.90;;;;;;5042484;28;20048;-76
2022/12/11 03:10:44;;;;;;;0.73;0.73;;;-0.10;99.90;;;;;;5041764;28;20108;-76
2022/12/11 03:13:12;;;;;;;3.03;2.58;;;-0.20;99.90;;;;;;5021904;28;20559;-76
2022/12/11 03:15:52;;;;;;;0.17;0.17;;;-0.20;99.90;;;;;;5024211;28;20410;-76
2022/12/11 03:18:30;;;;;;;1.33;0.95;;;-0.20;99.90;;;;;;5042342;28;20044;-76
2022/12/11 03:21:14;;;;;;;0.25;0.25;;;-0.20;99.90;;;;;;5041548;28;20057;-76
2022/12/11 03:24:05;;;;;;;3.30;1.90;;;-0.20;99.90;;;;;;5041534;28;20048;-76
2022/12/11 03:26:37;;;;;;;0.77;0.77;;;-0.20;99.90;;;;;;5040916;28;20114;-76
2022/12/11 03:29:16;;;;;;;0.68;0.68;;;-0.30;99.90;;;;;;5041840;28;20128;-76
2022/12/11 03:31:56;;;;;;;0.10;0.10;;;-0.30;99.90;;;;;;5041827;28;20101;-76
2022/12/11 03:34:31;;;;;;;4.00;1.53;;;-0.30;99.90;;;;;;5042216;28;20498;-76
2022/12/11 03:36:59;;;;;;;3.93;2.47;;;-0.20;99.90;;;;;;5041576;28;20522;-76
2022/12/11 03:39:31;;;;;;;1.53;1.43;;;-0.20;99.90;;;;;;5043106;28;20044;-76
2022/12/11 03:42:00;;;;;;;1.57;0.80;;;-0.10;99.90;;;;;;5042569;28;20055;-76
2022/12/11 03:44:27;;;;;;;1.33;1.23;;;-0.10;99.90;;;;;;5042128;28;20994;-77
2022/12/11 03:46:55;;;;;;;2.47;2.23;;;-0.10;99.90;;;;;;5041629;28;20044;-76
2022/12/11 03:49:27;;;;;;;0.00;0.00;;;-0.20;99.90;;;;;;5041892;28;20107;-76
2022/12/11 03:51:55;;;;;;;0.40;0.40;;;-0.20;99.90;;;;;;5041390;28;20053;-76
2022/12/11 03:54:23;;;;;;;1.20;1.17;;;-0.10;99.90;;;;;;5042078;28;20107;-77
2022/12/11 03:56:52;;;;;;;0.20;0.20;;;-0.10;99.90;;;;;;5041906;28;20045;-77
2022/12/11 03:59:18;;;;;;;0.77;0.77;;;-0.10;99.90;;;;;;5040158;28;20049;-75
2022/12/11 04:01:44;;;;;;;1.87;1.60;;;-0.10;99.90;;;;;;5041507;28;20335;-75
2022/12/11 04:04:10;;;;;;;0.10;0.10;;;-0.10;99.90;;;;;;5041967;28;20445;-75
2022/12/11 04:06:35;;;;;;;1.03;1.03;;;-0.10;99.90;;;;;;5040276;28;20049;-75
2022/12/11 04:09:01;;;;;;;2.10;1.90;;;-0.10;99.90;;;;;;5041796;28;20715;-75
2022/12/11 04:11:33;;;;;;;0.43;0.43;;;-0.10;99.90;;;;;;5041730;28;20053;-75
2022/12/11 04:16:58;;;;;;;4.22;2.35;;;-0.10;99.90;;;;;;5041912;28;20590;-76
2022/12/11 04:24:39;;;;;;;0.03;0.03;;;-0.10;99.90;;;;;;5041404;28;20088;-76
2022/12/11 04:27:06;;;;;;;0.77;0.77;;;-0.10;99.90;;;;;;5042776;28;20130;-76
2022/12/11 04:29:31;;;;;;;0.10;0.10;;;-0.10;99.90;;;;;;5042281;28;20087;-76
2022/12/11 04:31:57;;;;;;;1.80;1.70;;;-0.10;99.90;;;;;;5042806;28;20478;-76
2022/12/11 04:34:23;;;;;;;3.03;0.63;;;-0.10;99.90;;;;;;5042882;28;20052;-76
2022/12/11 04:36:49;;;;;;;0.47;0.47;;;-0.10;99.90;;;;;;5042180;28;20499;-76
2022/12/11 04:39:15;;;;;;;2.00;1.33;;;-0.10;99.90;;;;;;5042212;28;20076;-75
2022/12/11 04:41:41;;;;;;;2.07;1.90;;;-0.10;99.90;;;;;;5041806;28;20081;-76
2022/12/11 04:44:07;;;;;;;3.13;1.57;;;-0.10;99.90;;;;;;5043061;28;20455;-76
2022/12/11 04:46:34;;;;;;;2.00;1.10;;;-0.10;99.90;;;;;;5046289;28;20068;-76
2022/12/11 04:49:00;;;;;;;0.15;0.15;;;-0.10;99.90;;;;;;5046059;28;20052;-76
2022/12/11 04:51:27;;;;;;;1.65;1.25;;;-0.10;99.90;;;;;;5045917;28;20060;-76
2022/12/11 04:53:53;;;;;;;1.70;1.07;;;-0.10;99.90;;;;;;5046341;28;20045;-76
2022/12/11 04:56:19;;;;;;;1.43;1.33;;;-0.10;99.90;;;;;;5045965;28;20045;-76
2022/12/11 04:58:45;;;;;;;3.00;2.45;;;0.00;99.90;;;;;;5045688;28;20091;-75
2022/12/11 05:01:21;;;;;;;4.43;1.85;;;0.00;99.90;;;;;;5046074;28;20068;-76
2022/12/11 05:03:48;;;;;;;0.68;0.63;;;0.00;99.90;;;;;;5046252;28;20447;-76
2022/12/11 05:06:14;;;;;;;0.87;0.87;;;0.00;99.90;;;;;;5045978;28;20396;-76
2022/12/11 05:08:41;;;;;;;0.67;0.67;;;0.00;99.90;;;;;;5045933;28;20122;-76
2022/12/11 05:11:09;;;;;;;0.82;0.82;;;0.00;99.90;;;;;;5045411;28;20128;-76
2022/12/11 05:13:36;;;;;;;1.40;1.30;;;0.00;99.90;;;;;;5036069;28;20106;-76
2022/12/11 05:16:07;;;;;;;1.07;1.07;;;0.00;99.90;;;;;;5045775;28;20041;-76
2022/12/11 05:18:33;;;;;;;4.50;3.67;;;0.00;99.90;;;;;;5046088;28;20052;-76
2022/12/11 05:21:01;;;;;;;1.70;1.60;;;0.10;99.90;;;;;;5045206;28;20824;-76
2022/12/11 05:23:27;;;;;;;1.53;1.43;;;0.00;99.90;;;;;;5044404;28;20041;-76
2022/12/11 05:25:54;;;;;;;0.65;0.65;;;0.00;99.90;;;;;;5045768;28;20414;-75
2022/12/11 05:28:21;;;;;;;5.68;3.95;;;0.00;99.90;;;;;;5045958;28;20182;-76
2022/12/11 05:30:47;;;;;;;0.05;0.05;;;0.00;99.90;;;;;;5045638;28;20053;-76
2022/12/11 05:33:12;;;;;;;0.10;0.10;;;0.00;99.90;;;;;;5045702;28;20612;-76
2022/12/11 05:35:38;;;;;;;4.50;4.10;;;0.00;99.90;;;;;;5044986;28;20052;-75
2022/12/11 05:38:04;;;;;;;1.77;1.67;;;0.00;99.90;;;;;;5043639;28;20049;-76
2022/12/11 05:40:29;;;;;;;6.90;3.60;;;0.00;99.90;;;;;;5043675;28;20053;-75
2022/12/11 05:42:55;;;;;;;1.43;1.33;;;0.00;99.90;;;;;;5043009;28;20147;-76
2022/12/11 05:45:21;;;;;;;0.57;0.57;;;0.00;99.90;;;;;;5043409;28;20053;-76
2022/12/11 05:47:46;;;;;;;0.77;0.77;;;0.00;99.90;;;;;;5043506;28;20098;-76
2022/12/11 05:50:12;;;;;;;1.57;1.47;;;0.00;99.90;;;;;;5043035;28;20529;-76
2022/12/11 05:52:38;;;;;;;0.40;0.40;;;0.10;99.90;;;;;;5042652;28;20041;-76
2022/12/11 05:55:03;;;;;;;0.35;0.15;;;0.00;99.90;;;;;;5043616;28;20449;-76
2022/12/11 05:57:29;;;;;;;1.87;1.77;;;0.00;99.90;;;;;;5042893;28;20063;-75
2022/12/11 05:59:55;;;;;;;3.73;1.70;;;0.00;99.90;;;;;;5043366;28;20056;-76
2022/12/11 06:02:20;;;;;;;11.20;2.77;;;0.00;99.90;;;;;;5042800;28;20048;-76
2022/12/11 06:04:46;;;;;;;2.70;1.77;;;0.00;99.90;;;;;;5042444;28;20044;-76
2022/12/11 06:07:12;;;;;;;0.40;0.40;;;0.00;99.90;;;;;;5042756;28;20053;-76
2022/12/11 06:09:38;;;;;;;7.53;1.17;;;0.00;99.90;;;;;;5042854;28;20049;-76
2022/12/11 06:12:03;;;;;;;0.57;0.57;;;0.00;99.90;;;;;;5042372;28;20040;-76
2022/12/11 06:14:29;;;;;;;0.37;0.37;;;0.00;99.90;;;;;;5043265;28;20057;-76
2022/12/11 06:16:55;;;;;;;0.40;0.40;;;0.00;99.90;;;;;;5042938;28;20491;-76
2022/12/11 06:19:21;;;;;;;1.83;1.73;;;0.00;99.90;;;;;;5042720;28;20380;-76
2022/12/11 06:21:47;;;;;;;2.10;1.17;;;0.00;99.90;;;;;;5042287;28;20044;-76
2022/12/11 06:24:13;;;;;;;3.00;2.67;;;0.00;99.90;;;;;;5042372;28;20053;-76
2022/12/11 06:26:39;;;;;;;0.60;0.60;;;0.00;99.90;;;;;;5043088;28;20095;-76
2022/12/11 06:29:05;;;;;;;1.30;1.20;;;0.00;99.90;;;;;;5042581;28;20052;-75
2022/12/11 06:31:30;;;;;;;0.13;0.13;;;0.00;99.90;;;;;;5042173;28;20407;-76
2022/12/11 06:33:56;;;;;;;3.43;1.73;;;0.00;99.90;;;;;;5042694;28;20055;-75
2022/12/11 06:36:23;;;;;;;2.73;2.50;;;0.10;99.90;;;;;;5042462;28;20440;-75
2022/12/11 06:38:49;;;;;;;2.17;1.73;;;0.00;99.90;;;;;;5042227;28;20071;-75
2022/12/11 06:41:15;;;;;;;0.55;0.55;;;0.00;99.90;;;;;;5041999;28;20516;-76
2022/12/11 06:43:44;;;;;;;0.50;0.50;;;0.10;99.90;;;;;;5042044;28;20045;-76
2022/12/11 06:46:16;;;;;;;2.73;1.70;;;0.10;99.90;;;;;;5042247;28;20116;-76
2022/12/11 06:48:43;;;;;;;0.83;0.63;;;0.10;99.90;;;;;;5042135;28;20065;-76
2022/12/11 06:51:14;;;;;;;0.20;0.20;;;0.10;99.90;;;;;;5042217;28;20094;-76
2022/12/11 06:53:40;;;;;;;0.30;0.30;;;0.00;99.90;;;;;;5041939;28;20044;-76
2022/12/11 06:56:10;;;;;;;0.95;0.95;;;0.00;99.90;;;;;;5042084;28;20473;-76
2022/12/11 06:58:36;;;;;;;0.10;0.10;;;0.10;99.90;;;;;;5041851;28;20057;-76
2022/12/11 07:01:04;;;;;;;0.73;0.73;;;0.10;99.90;;;;;;5041032;28;20052;-76
2022/12/11 07:03:29;;;;;;;1.02;0.75;;;0.10;99.90;;;;;;5041406;28;20051;-76
2022/12/11 07:06:01;;;;;;;0.73;0.73;;;0.10;99.90;;;;;;5042144;28;20045;-76
2022/12/11 07:08:28;;;;;;;0.93;0.93;;;0.10;99.90;;;;;;5041315;28;20398;-76
2022/12/11 07:10:54;;;;;;;13.38;1.52;;;0.10;99.90;;;;;;5041493;28;20040;-76
2022/12/11 07:13:19;;;;;;;1.42;1.33;;;0.10;99.90;;;;;;5041448;28;20563;-76
2022/12/11 07:15:45;;;;;;;4.90;1.97;;;0.10;99.90;;;;;;5040815;28;20159;-76
2022/12/11 07:18:11;;;;;;;0.60;0.60;;;0.00;99.90;;;;;;5041626;28;20441;-76
2022/12/11 07:20:36;;;;;;;0.00;0.00;;;0.10;99.90;;;;;;5042027;28;20053;-75
2022/12/11 07:23:02;;;;;;;0.50;0.50;;;0.10;99.90;;;;;;5040912;28;20177;-76
2022/12/11 07:25:28;;;;;;;0.70;0.70;;;0.10;99.90;;;;;;5041451;28;20048;-76
2022/12/11 07:27:53;;;;;;;0.27;0.27;;;0.10;99.90;;;;;;5041560;28;20094;-76
2022/12/11 07:30:19;;;;;;;2.28;1.30;;;0.10;99.90;;;;;;5041553;28;20045;-76
2022/12/11 07:32:45;;;;;;;4.60;1.67;;;0.10;99.90;;;;;;5040807;28;20125;-76
2022/12/11 07:35:10;;;;;;;1.10;1.05;;;0.00;99.90;;;;;;5034872;28;20045;-76
2022/12/11 07:37:39;;;;;;;1.80;1.70;;;0.00;99.90;;;;;;5028008;28;20136;-76
2022/12/11 07:40:05;;;;;;;3.60;1.30;;;0.00;99.90;;;;;;5027936;28;20410;-76
2022/12/11 07:42:31;;;;;;;0.75;0.75;;;0.10;99.90;;;;;;5028308;28;20048;-76
2022/12/11 07:44:56;;;;;;;4.75;1.88;;;0.10;99.90;;;;;;5028520;28;20064;-75
2022/12/11 07:47:22;;;;;;;0.10;0.10;;;0.00;99.90;;;;;;5028080;28;20127;-76
2022/12/11 07:49:48;;;;;;;1.40;1.13;;;0.10;99.90;;;;;;5030234;28;20048;-76
2022/12/11 07:52:14;;;;;;;4.75;2.60;;;0.10;99.90;;;;;;5026987;28;20617;-75
2022/12/11 07:54:40;;;;;;;2.95;1.70;;;0.10;99.90;;;;;;5033602;28;20106;-76
2022/12/11 07:57:05;;;;;;;10.00;3.27;;;0.10;99.90;;;;;;5037744;28;20074;-76
2022/12/11 07:59:31;;;;;;;0.70;0.57;;;0.10;99.90;;;;;;5036887;28;20045;-76
2022/12/11 08:01:57;;;;;;;1.40;1.30;;;0.00;99.90;;;;;;5038563;28;20049;-76
2022/12/11 08:04:22;;;;;;;0.45;0.45;;;0.00;99.90;;;;;;5037870;28;20456;-76
2022/12/11 08:06:48;;;;;;;0.37;0.37;;;0.00;99.90;;;;;;5037993;28;20752;-76
2022/12/11 08:09:14;;;;;;;1.00;0.93;;;0.10;99.90;;;;;;5036968;28;20086;-76
2022/12/11 08:11:40;;;;;;;0.23;0.23;;;0.00;99.90;;;;;;5038298;28;20052;-76
2022/12/11 08:14:07;;;;;;;4.63;2.60;;;0.10;99.90;;;;;;5029379;28;20087;-76
2022/12/11 08:16:33;;;;;;;2.60;2.30;;;0.10;99.90;;;;;;5037985;28;20049;-77
2022/12/11 08:18:59;;;;;;;0.28;0.28;;;0.10;99.90;;;;;;5028744;28;20048;-76
2022/12/11 08:21:27;;;;;;;1.20;0.50;;;0.10;99.90;;;;;;5042009;28;20126;-76
2022/12/11 08:23:54;;;;;;;2.67;2.47;;;0.10;99.90;;;;;;5041941;28;20151;-76
2022/12/11 08:26:30;;;;;;;3.07;1.73;;;0.20;99.90;;;;;;5041522;28;20045;-76
2022/12/11 08:28:57;;;;;;;1.20;1.13;;;0.10;99.90;;;;;;5041017;28;20051;-77
2022/12/11 08:31:23;;;;;;;0.43;0.43;;;0.10;99.90;;;;;;5041895;28;20132;-77
2022/12/11 08:33:49;;;;;;;0.30;0.30;;;0.10;99.90;;;;;;5041149;28;20084;-76
2022/12/11 08:36:18;;;;;;;0.57;0.57;;;0.10;99.90;;;;;;5041995;28;20398;-76
2022/12/11 08:38:45;;;;;;;1.20;1.10;;;0.10;99.90;;;;;;5040582;28;20132;-77
2022/12/11 08:41:23;;;;;;;2.22;1.73;;;0.20;99.90;;;;;;5041020;28;20045;-77
2022/12/11 08:43:53;;;;;;;2.43;1.80;;;0.10;99.90;;;;;;5041203;28;20453;-77
2022/12/11 08:46:20;;;;;;;0.10;0.10;;;0.10;99.90;;;;;;5025144;28;20135;-77
2022/12/11 08:48:45;;;;;;;1.47;1.37;;;0.20;99.90;;;;;;5040675;28;20057;-77
2022/12/11 08:51:14;;;;;;;2.30;2.10;;;0.20;99.90;;;;;;5040781;28;20037;-76
2022/12/11 08:53:40;;;;;;;0.10;0.10;;;0.30;99.90;;;;;;5041116;28;20474;-77
2022/12/11 08:56:11;;;;;;;0.77;0.77;;;0.20;99.90;;;;;;5039991;28;20132;-77
2022/12/11 08:58:37;;;;;;;2.00;1.43;;;0.20;99.90;;;;;;5040630;28;20049;-76
2022/12/11 09:01:14;;;;;;;3.92;3.05;;;0.20;99.90;;;;;;5040949;28;20094;-76
2022/12/11 09:03:40;;;;;;;1.80;1.70;;;0.30;99.90;;;;;;5040830;28;20506;-77
2022/12/11 09:06:09;;;;;;;1.77;1.47;;;0.30;99.90;;;;;;5040369;28;20128;-77
2022/12/11 09:08:35;;;;;;;1.20;1.07;;;0.30;99.90;;;;;;5040893;28;20570;-77
2022/12/11 09:11:12;;;;;;;0.47;0.47;;;0.30;99.90;;;;;;5040893;28;20059;-77
2022/12/11 09:13:39;;;;;;;1.17;1.07;;;0.30;99.90;;;;;;5040986;28;20051;-77
2022/12/11 09:16:08;;;;;;;0.47;0.47;;;0.40;99.90;;;;;;5040476;28;20791;-77
2022/12/11 09:18:35;;;;;;;0.20;0.20;;;0.40;99.90;;;;;;5040289;28;20044;-77
2022/12/11 09:21:03;;;;;;;1.53;1.43;;;0.40;99.90;;;;;;5031712;28;20411;-77
2022/12/11 09:23:29;;;;;;;3.20;2.90;;;0.50;99.90;;;;;;5029740;28;20624;-77
2022/12/11 09:25:55;;;;;;;3.40;1.90;;;0.40;99.90;;;;;;5029568;28;20044;-77
2022/12/11 09:28:20;;;;;;;1.80;1.23;;;0.40;99.90;;;;;;5030881;28;20053;-77
2022/12/11 09:30:46;;;;;;;0.47;0.47;;;0.40;99.90;;;;;;5028657;28;20152;-77
2022/12/11 09:33:12;;;;;;;6.23;3.50;;;0.50;99.90;;;;;;5031700;28;20037;-77
2022/12/11 09:35:37;;;;;;;1.50;0.97;;;0.40;99.90;;;;;;5029538;28;20143;-76
2022/12/11 09:38:03;;;;;;;2.07;1.87;;;0.40;99.90;;;;;;5031346;28;20375;-76
2022/12/11 09:40:30;;;;;;;5.00;2.70;;;0.30;99.90;;;;;;5030569;28;20045;-76
2022/12/11 09:43:11;;;;;;;1.60;1.30;;;0.40;99.90;;;;;;5036223;28;20044;-76
2022/12/11 09:45:37;;;;;;;4.90;3.50;;;0.40;99.90;;;;;;5030888;28;20098;-76
2022/12/11 09:48:03;;;;;;;0.50;0.50;;;0.40;99.90;;;;;;5041034;28;20044;-76
2022/12/11 09:50:33;;;;;;;1.50;1.40;;;0.40;99.90;;;;;;5041089;28;20102;-76
2022/12/11 09:53:17;;;;;;;0.85;0.82;;;0.40;99.90;;;;;;5031948;28;20052;-76
2022/12/11 09:56:04;;;;;;;2.03;1.13;;;0.40;99.90;;;;;;5033405;28;20147;-76
2022/12/11 09:58:49;;;;;;;0.45;0.45;;;0.40;99.90;;;;;;5032844;28;20128;-77
2022/12/11 10:01:47;;;;;;;0.30;0.30;;;0.40;99.90;;;;;;5030481;28;20063;-77
2022/12/11 10:04:34;;;;;;;10.70;4.30;;;0.40;99.90;;;;;;5028820;28;20053;-77
2022/12/11 10:07:10;;;;;;;0.43;0.43;;;0.40;99.90;;;;;;5029898;28;20499;-76
2022/12/11 10:09:50;;;;;;;;;;;0.50;99.90;;;;;;5029505;28;20451;-76
2022/12/11 10:12:58;;;;;;;1.10;1.03;;;0.50;99.90;;;;;;5031146;28;20024;-77
2022/12/11 10:15:54;;;;;;;1.00;1.00;;;0.40;99.90;;;;;;5031599;28;20103;-76
2022/12/11 10:18:23;;;;;;;0.22;0.22;;;0.40;99.90;;;;;;5030192;28;20079;-76
2022/12/11 10:20:51;;;;;;;2.73;1.93;;;0.50;99.90;;;;;;5030030;28;20060;-76
2022/12/11 10:23:20;;;;;;;0.97;0.97;;;0.50;99.90;;;;;;5027520;28;20084;-76
2022/12/11 10:26:02;;;;;;;3.75;1.63;;;0.50;99.90;;;;;;5030149;28;20518;-76
2022/12/11 10:28:28;;;;;;;0.75;0.75;;;0.50;99.90;;;;;;5027532;28;20045;-76
2022/12/11 10:31:17;;;;;;;0.63;0.63;;;0.50;99.90;;;;;;5028693;28;20041;-76
2022/12/11 10:34:01;;;;;;;0.20;0.20;;;0.50;99.90;;;;;;5033217;28;20560;-76
2022/12/11 10:36:30;;;;;;;0.10;0.10;;;0.40;99.90;;;;;;5030278;28;20128;-76
2022/12/11 10:38:56;;;;;;;0.30;0.30;;;0.50;99.90;;;;;;5031738;28;20068;-76
2022/12/11 10:41:30;;;;;;;1.43;1.33;;;0.50;99.90;;;;;;5029014;28;20453;-76
2022/12/11 10:43:56;;;;;;;1.77;1.67;;;0.50;99.90;;;;;;5029225;28;20048;-76
2022/12/11 10:46:25;;;;;;;1.83;1.73;;;0.50;99.90;;;;;;5030277;28;20044;-76
2022/12/11 10:48:53;;;;;;;0.40;0.40;;;0.50;99.90;;;;;;5028543;28;20049;-76
2022/12/11 10:51:25;;;;;;;0.73;0.73;;;0.50;99.90;;;;;;5030508;28;20514;-76
2022/12/11 10:53:52;;;;;;;1.00;0.85;;;0.50;99.90;;;;;;5029383;28;20037;-76
2022/12/11 10:56:30;;;;;;;0.30;0.30;;;0.60;99.90;;;;;;5027467;28;20041;-76
2022/12/11 10:58:57;;;;;;;1.53;0.87;;;0.60;99.90;;;;;;5028856;28;20077;-76
2022/12/11 11:01:26;;;;;;;2.40;1.80;;;0.50;99.90;;;;;;5026531;28;20092;-76
2022/12/11 11:04:24;;;;;;;0.40;0.40;;;0.50;99.90;;;;;;5029093;28;20048;-76
2022/12/11 11:07:02;;;;;;;6.13;1.27;;;0.50;99.90;;;;;;5037280;28;20529;-76
2022/12/11 11:09:35;;;;;;;0.90;0.90;;;0.50;99.90;;;;;;5031567;28;20041;-76
2022/12/11 11:12:01;;;;;;;1.83;1.42;;;0.50;99.90;;;;;;5030949;28;20408;-76
2022/12/11 11:14:27;;;;;;;1.67;1.57;;;0.50;99.90;;;;;;5030961;28;20588;-76
2022/12/11 11:16:59;;;;;;;0.93;0.73;;;0.60;99.90;;;;;;5031818;28;20044;-76
2022/12/11 11:19:34;;;;;;;1.17;1.13;;;0.60;99.90;;;;;;5030706;28;20111;-76
2022/12/11 11:22:07;;;;;;;2.17;1.45;;;0.60;99.90;;;;;;5033921;28;20048;-76
2022/12/11 11:24:59;;;;;;;0.60;0.60;;;0.70;99.90;;;;;;5031131;28;20406;-76
2022/12/11 11:27:45;;;;;;;1.00;0.90;;;0.70;99.90;;;;;;5031242;28;20069;-76
2022/12/11 11:30:18;;;;;;;1.95;1.85;;;0.70;99.90;;;;;;5032418;28;20053;-75
2022/12/11 11:32:44;;;;;;;1.77;1.67;;;0.60;99.90;;;;;;5030332;28;20617;-76
2022/12/11 11:35:10;;;;;;;1.70;1.60;;;0.70;99.90;;;;;;5029730;28;20037;-76
2022/12/11 11:37:37;;;;;;;3.30;2.43;;;0.70;99.90;;;;;;5031153;28;20052;-76
2022/12/11 11:40:26;;;;;;;0.60;0.60;;;0.70;99.90;;;;;;5029070;28;20751;-76
2022/12/11 11:43:19;;;;;;;0.68;0.68;;;0.70;99.90;;;;;;5033512;28;20452;-76
2022/12/11 11:46:10;;;;;;;2.60;2.40;;;0.70;99.90;;;;;;5031495;28;20094;-75
2022/12/11 11:48:51;;;;;;;2.17;1.43;;;0.60;99.90;;;;;;5030014;28;20292;-75
2022/12/11 11:51:31;;;;;;;0.33;0.33;;;0.60;99.90;;;;;;5032109;28;20105;-76
2022/12/11 11:54:00;;;;;;;1.03;0.93;;;0.60;99.90;;;;;;5035147;28;20049;-76
2022/12/11 11:56:30;;;;;;;1.08;0.73;;;0.70;99.90;;;;;;5029529;28;20103;-76
2022/12/11 11:58:59;;;;;;;0.60;0.60;;;0.70;99.90;;;;;;5030707;28;20076;-76
2022/12/11 12:01:26;;;;;;;0.10;0.10;;;0.70;99.90;;;;;;5027317;28;20057;-76
2022/12/11 12:03:52;;;;;;;1.47;1.17;;;0.70;99.90;;;;;;5031315;28;20116;-76
2022/12/11 12:06:50;;;;;;;0.73;0.73;;;0.70;99.90;;;;;;5030549;28;20048;-76
2022/12/11 12:09:36;;;;;;;2.90;2.13;;;0.70;99.90;;;;;;5039720;28;20065;-76
2022/12/11 12:12:15;;;;;;;0.93;0.93;;;0.70;99.90;;;;;;5030580;28;20041;-76
2022/12/11 12:15:20;;;;;;;1.10;1.03;;;0.70;99.90;;;;;;5031832;28;20049;-76
2022/12/11 12:17:54;;;;;;;0.53;0.47;;;0.70;99.90;;;;;;5029811;28;20087;-76
2022/12/11 12:20:32;;;;;;;3.07;2.33;;;0.70;99.90;;;;;;5028940;28;20052;-76
2022/12/11 12:23:11;;;;;;;0.50;0.50;;;0.70;99.90;;;;;;5032180;28;20737;-76
2022/12/11 12:25:48;;;;;;;2.17;2.00;;;0.70;99.90;;;;;;5032224;28;20127;-76
2022/12/11 12:28:54;;;;;;;1.60;1.50;;;0.70;99.90;;;;;;5033551;28;20128;-77
2022/12/11 12:31:48;;;;;;;0.10;0.10;;;0.70;99.90;;;;;;5016248;28;20046;-76
2022/12/11 12:34:17;;;;;;;0.37;0.37;;;0.80;99.90;;;;;;5030439;28;20092;-76
2022/12/11 12:36:46;;;;;;;1.25;1.15;;;0.80;99.90;;;;;;5030199;28;20037;-76
2022/12/11 12:39:35;;;;;;;0.15;0.15;;;0.80;99.90;;;;;;5032045;28;20076;-76
2022/12/11 12:42:30;;;;;;;0.43;0.43;;;0.70;99.90;;;;;;5032429;28;20045;-76
2022/12/11 12:45:09;;;;;;;0.70;0.70;;;0.80;99.90;;;;;;5025903;28;20050;-76
2022/12/11 12:47:36;;;;;;;3.15;0.82;;;0.80;99.90;;;;;;5028486;28;20155;-76
2022/12/11 12:50:03;;;;;;;1.50;1.07;;;0.80;99.90;;;;;;5030399;28;20092;-76
2022/12/11 12:52:38;;;;;;;1.97;1.80;;;0.80;99.90;;;;;;5029894;28;20060;-77
2022/12/11 12:55:27;;;;;;;2.23;2.13;;;0.70;99.90;;;;;;5037871;28;20068;-76
2022/12/11 12:58:03;;;;;;;2.60;2.40;;;0.70;99.90;;;;;;5040162;28;20589;-77
2022/12/11 13:00:36;;;;;;;1.08;1.05;;;0.70;99.90;;;;;;5055628;28;20057;-77
2022/12/11 13:03:26;;;;;;;2.97;2.55;;;0.70;99.90;;;;;;5040305;28;20080;-76
2022/12/11 13:06:08;;;;;;;1.07;1.07;;;0.70;99.90;;;;;;5042548;28;20048;-77
2022/12/11 13:08:42;;;;;;;0.20;0.20;;;0.70;99.90;;;;;;5044129;28;20446;-76
2022/12/11 13:11:10;;;;;;;5.30;0.88;;;0.70;99.90;;;;;;5043102;28;20053;-76
2022/12/11 13:13:40;;;;;;;2.65;1.45;;;0.70;99.90;;;;;;5043822;28;20048;-77
2022/12/11 13:16:15;;;;;;;4.73;2.07;;;0.70;99.90;;;;;;5043766;28;20049;-75
2022/12/11 13:18:47;;;;;;;3.80;2.63;;;0.70;99.90;;;;;;5044313;28;20045;-76